Time;durP1;ratioP1;P1;durP2;ratioP2;P2;SDS_P1;SDS_P2;PMS_P1;PMS_P2;Temp;Humidity;BMP_temperature;BMP_pressure;BME280_temperature;BME280_humidity;BME280_pressure;Samples;Min_cycle;Max_cycle;Signal;HPM_P1;HPM_P2
2021/03/04 00:00:35;;;;;;;38.92;26.08;;;;;;;10.15;50.95;101559.34;5014899;28;20030;-80
2021/03/04 00:03:04;;;;;;;40.30;25.67;;;;;;;10.03;51.75;101559.69;5027873;28;20124;-80
2021/03/04 00:05:30;;;;;;;33.28;22.90;;;;;;;10.11;51.32;101557.69;5014501;28;20049;-80
2021/03/04 00:07:57;;;;;;;34.13;23.05;;;;;;;9.94;51.67;101560.75;5014340;28;20062;-79
2021/03/04 00:10:25;;;;;;;36.78;23.40;;;;;;;10.05;51.91;101560.47;5026501;28;20046;-80
2021/03/04 00:12:52;;;;;;;32.30;22.23;;;;;;;9.90;52.23;101552.16;5014001;28;20054;-79
2021/03/04 00:15:21;;;;;;;39.88;24.17;;;;;;;9.79;53.09;101555.94;5014116;28;20121;-81
2021/03/04 00:17:48;;;;;;;33.92;25.55;;;;;;;9.77;53.15;101557.75;5014292;28;20069;-80
2021/03/04 00:20:19;;;;;;;34.25;24.17;;;;;;;9.83;52.96;101553.22;5014277;28;20053;-81
2021/03/04 00:22:46;;;;;;;39.03;22.98;;;;;;;9.82;52.57;101548.94;5014408;28;20084;-80
2021/03/04 00:25:13;;;;;;;38.50;23.02;;;;;;;9.84;52.45;101549.72;5013595;28;20073;-80
2021/03/04 00:27:40;;;;;;;35.30;22.35;;;;;;;9.88;52.15;101550.50;5014031;28;20042;-79
2021/03/04 00:30:09;;;;;;;37.35;21.88;;;;;;;9.99;50.31;101548.47;5013651;28;20038;-79
2021/03/04 00:32:35;;;;;;;32.90;19.67;;;;;;;9.87;51.91;101541.00;5013717;28;20065;-79
2021/03/04 00:35:03;;;;;;;35.10;21.38;;;;;;;9.73;52.22;101536.13;5009287;28;20041;-78
2021/03/04 00:37:29;;;;;;;29.20;20.02;;;;;;;9.81;51.39;101541.16;5008679;28;20037;-79
2021/03/04 00:39:56;;;;;;;31.30;23.02;;;;;;;9.74;52.49;101536.97;5006698;28;20052;-79
2021/03/04 00:42:22;;;;;;;35.97;22.48;;;;;;;9.68;53.04;101530.19;5007561;28;20077;-78
2021/03/04 00:44:49;;;;;;;31.77;22.33;;;;;;;9.57;53.12;101535.66;5007302;28;20038;-79
2021/03/04 00:47:15;;;;;;;32.10;21.83;;;;;;;9.51;53.14;101530.63;5006946;28;20409;-79
2021/03/04 00:49:42;;;;;;;37.92;23.15;;;;;;;9.47;53.06;101525.53;5007090;28;20038;-79
2021/03/04 00:52:09;;;;;;;34.60;21.42;;;;;;;9.55;53.51;101523.59;5008087;28;20111;-80
2021/03/04 00:54:37;;;;;;;34.20;23.50;;;;;;;9.43;53.89;101517.81;5006875;28;20042;-81
2021/03/04 00:57:04;;;;;;;34.72;22.38;;;;;;;9.45;53.66;101522.97;5006974;28;20496;-77
2021/03/04 00:59:30;;;;;;;40.75;24.98;;;;;;;9.41;54.28;101516.97;5005611;28;20053;-77
2021/03/04 01:01:56;;;;;;;38.00;24.73;;;;;;;9.37;53.84;101510.13;5007332;28;20126;-76
2021/03/04 01:04:23;;;;;;;40.78;26.45;;;;;;;9.44;53.91;101510.84;5007870;28;20046;-77
2021/03/04 01:06:49;;;;;;;37.40;25.77;;;;;;;9.30;54.06;101505.13;5006501;28;20095;-76
2021/03/04 01:09:16;;;;;;;40.17;27.23;;;;;;;9.24;53.89;101500.94;5005833;28;20105;-78
2021/03/04 01:11:42;;;;;;;39.08;25.80;;;;;;;9.30;53.74;101495.56;5007003;28;20046;-78
2021/03/04 01:14:09;;;;;;;37.80;24.17;;;;;;;9.34;53.27;101497.22;5006869;28;20038;-78
2021/03/04 01:16:35;;;;;;;37.42;24.15;;;;;;;9.35;53.76;101487.66;5007600;28;20143;-77
2021/03/04 01:19:02;;;;;;;33.35;24.58;;;;;;;9.73;52.15;101491.88;5007650;28;20449;-78
2021/03/04 01:21:28;;;;;;;38.10;22.65;;;;;;;9.66;51.77;101490.34;5006801;28;20076;-78
2021/03/04 01:23:55;;;;;;;32.92;22.52;;;;;;;9.36;52.73;101484.16;5006754;28;21159;-79
2021/03/04 01:26:21;;;;;;;34.90;24.08;;;;;;;9.19;53.39;101481.97;5004614;28;20048;-78
2021/03/04 01:28:48;;;;;;;32.72;21.02;;;;;;;9.09;53.22;101478.75;5008476;28;20042;-78
2021/03/04 01:31:14;;;;;;;29.45;19.55;;;;;;;9.11;53.34;101476.13;5008080;28;20081;-78
2021/03/04 01:33:41;;;;;;;31.58;21.25;;;;;;;9.15;53.42;101472.53;5008997;28;20044;-79
2021/03/04 01:36:07;;;;;;;33.33;20.92;;;;;;;9.34;52.08;101465.13;5006716;28;20117;-76
2021/03/04 01:38:33;;;;;;;30.58;19.13;;;;;;;9.08;53.69;101466.63;5007219;28;20125;-76
2021/03/04 01:41:00;;;;;;;28.25;18.95;;;;;;;9.07;53.60;101458.88;5007545;28;20038;-78
2021/03/04 01:43:26;;;;;;;27.98;19.20;;;;;;;9.11;53.02;101453.56;5006474;28;20044;-79
2021/03/04 01:45:53;;;;;;;38.42;20.27;;;;;;;9.17;52.75;101455.16;5006496;28;20408;-77
2021/03/04 01:48:20;;;;;;;27.60;19.75;;;;;;;9.12;52.83;101450.06;5007186;28;20111;-78
2021/03/04 01:50:47;;;;;;;37.13;20.85;;;;;;;9.07;53.11;101445.88;5007278;28;20057;-76
2021/03/04 01:53:13;;;;;;;31.92;21.67;;;;;;;9.04;53.13;101438.13;5014632;28;20120;-77
2021/03/04 01:55:40;;;;;;;33.72;21.13;;;;;;;9.05;53.19;101438.06;5011225;28;20572;-79
2021/03/04 01:58:07;;;;;;;32.72;19.33;;;;;;;9.38;51.55;101440.75;5010212;28;20050;-78
2021/03/04 02:00:33;;;;;;;29.58;20.63;;;;;;;9.29;52.11;101430.56;5010777;28;20413;-79
2021/03/04 02:03:00;;;;;;;35.22;19.90;;;;;;;9.17;52.09;101431.75;5009722;28;20496;-77
2021/03/04 02:05:26;;;;;;;29.10;17.55;;;;;;;9.30;51.79;101427.06;5011086;28;20049;-79
2021/03/04 02:08:10;;;;;;;31.30;18.83;;;;;;;9.08;52.61;101411.16;5010368;28;20058;-79
2021/03/04 02:10:43;;;;;;;27.00;18.67;;;;;;;8.84;53.41;101418.69;5010310;28;20042;-80
2021/03/04 02:13:35;;;;;;;26.02;19.35;;;;;;;8.81;53.68;101408.34;5008401;28;20485;-81
2021/03/04 02:16:09;;;;;;;27.05;16.95;;;;;;;8.86;53.10;101405.63;5010803;28;20408;-80
2021/03/04 02:18:41;;;;;;;31.58;18.70;;;;;;;8.98;52.68;101409.69;5009915;28;20068;-80
2021/03/04 02:21:40;;;;;;;34.20;17.88;;;;;;;8.89;53.37;101408.13;5009784;28;20488;-80
2021/03/04 02:24:39;;;;;;;32.60;17.98;;;;;;;8.66;54.16;101409.56;5010099;28;20049;-81
2021/03/04 02:27:16;;;;;;;27.52;16.75;;;;;;;8.80;53.79;101404.03;5008758;28;20489;-80
2021/03/04 02:30:02;;;;;;;28.35;17.63;;;;;;;8.70;54.39;101402.56;5010070;28;20061;-80
2021/03/04 02:32:30;;;;;;;25.88;17.15;;;;;;;8.61;54.49;101401.00;5008550;28;20042;-79
2021/03/04 02:35:03;;;;;;;25.38;16.70;;;;;;;8.73;53.59;101393.81;5007805;28;20129;-78
2021/03/04 02:37:32;;;;;;;25.17;17.02;;;;;;;8.66;53.68;101393.09;5008460;28;20104;-80
2021/03/04 02:39:59;;;;;;;24.20;16.70;;;;;;;8.59;54.29;101386.34;5009518;28;20048;-80
2021/03/04 02:42:27;;;;;;;24.50;15.95;;;;;;;8.80;52.90;101385.84;5009285;28;20509;-80
2021/03/04 02:44:56;;;;;;;23.58;17.00;;;;;;;9.06;51.60;101386.94;5006559;28;20497;-80
2021/03/04 02:47:23;;;;;;;25.00;16.52;;;;;;;8.77;52.97;101378.09;5008278;28;20116;-80
2021/03/04 02:49:50;;;;;;;28.40;16.70;;;;;;;8.66;53.21;101382.72;5007504;28;20065;-80
2021/03/04 02:52:18;;;;;;;25.23;17.13;;;;;;;8.75;52.88;101377.31;5009544;28;20499;-80
2021/03/04 02:54:45;;;;;;;26.58;17.42;;;;;;;8.88;51.84;101367.44;5008655;28;20089;-80
2021/03/04 02:57:13;;;;;;;30.30;18.20;;;;;;;8.93;51.31;101366.44;5009014;28;20049;-81
2021/03/04 02:59:41;;;;;;;26.38;16.80;;;;;;;8.63;52.93;101375.84;5008889;28;20038;-80
2021/03/04 03:02:09;;;;;;;29.35;16.23;;;;;;;8.49;54.42;101369.28;5008705;28;20038;-79
2021/03/04 03:04:38;;;;;;;28.48;16.23;;;;;;;8.47;54.28;101369.31;5010166;28;20100;-79
2021/03/04 03:07:07;;;;;;;24.67;16.80;;;;;;;8.45;53.91;101368.47;5009660;28;20578;-79
2021/03/04 03:09:35;;;;;;;27.15;17.27;;;;;;;8.53;53.53;101365.72;5010159;28;20129;-79
2021/03/04 03:12:02;;;;;;;24.35;16.48;;;;;;;8.50;53.82;101365.78;5009346;28;20069;-80
2021/03/04 03:14:29;;;;;;;25.17;16.08;;;;;;;8.49;53.68;101370.13;5008915;28;20038;-80
2021/03/04 03:16:58;;;;;;;23.35;16.45;;;;;;;8.44;53.91;101363.31;5008592;28;20496;-80
2021/03/04 03:19:25;;;;;;;25.58;16.35;;;;;;;8.43;54.02;101357.28;5009187;28;20042;-80
2021/03/04 03:21:53;;;;;;;22.73;16.08;;;;;;;8.53;53.91;101355.31;5008790;28;20447;-78
2021/03/04 03:24:20;;;;;;;26.83;18.60;;;;;;;8.58;52.92;101354.31;5008499;28;20053;-77
2021/03/04 03:26:46;;;;;;;29.10;18.02;;;;;;;8.32;54.13;101357.50;5008339;28;20061;-77
2021/03/04 03:29:13;;;;;;;25.08;16.35;;;;;;;8.31;53.71;101353.19;5008519;28;20038;-77
2021/03/04 03:31:41;;;;;;;25.15;14.90;;;;;;;8.30;53.96;101348.84;5008379;28;20074;-77
2021/03/04 03:34:09;;;;;;;28.65;17.48;;;;;;;8.27;54.74;101350.69;5008103;28;21635;-77
2021/03/04 03:36:37;;;;;;;28.02;17.45;;;;;;;8.27;54.02;101337.72;5008253;28;20137;-77
2021/03/04 03:39:06;;;;;;;26.63;17.42;;;;;;;8.22;54.90;101342.16;5007701;28;20044;-77
2021/03/04 03:41:34;;;;;;;26.45;17.60;;;;;;;8.60;52.95;101336.94;5008174;28;20034;-79
2021/03/04 03:44:01;;;;;;;27.90;16.63;;;;;;;8.40;53.74;101340.00;5007680;28;20125;-79
2021/03/04 03:46:33;;;;;;;25.67;16.63;;;;;;;8.28;53.69;101336.81;5008589;28;20488;-79
2021/03/04 03:49:05;;;;;;;27.45;18.45;;;;;;;8.49;52.76;101330.28;5008082;28;20038;-80
2021/03/04 03:51:35;;;;;;;25.92;16.70;;;;;;;8.29;53.94;101334.16;5008236;28;20046;-80
2021/03/04 03:54:04;;;;;;;29.00;16.63;;;;;;;8.41;53.48;101330.44;5007498;28;20456;-77
2021/03/04 03:56:34;;;;;;;26.27;17.65;;;;;;;8.16;54.14;101327.56;5009300;28;20073;-79
2021/03/04 03:59:01;;;;;;;28.88;18.90;;;;;;;8.12;54.39;101331.97;5007934;28;20052;-79
2021/03/04 04:01:29;;;;;;;26.55;17.05;;;;;;;8.03;54.83;101333.91;5007541;28;20088;-80
2021/03/04 04:03:59;;;;;;;29.15;17.38;;;;;;;8.06;54.86;101334.69;5007802;28;20038;-80
2021/03/04 04:06:30;;;;;;;24.95;17.55;;;;;;;8.13;54.77;101336.25;5007787;28;20057;-78
2021/03/04 04:08:58;;;;;;;27.65;18.30;;;;;;;8.00;55.75;101334.00;5007354;28;20093;-78
2021/03/04 04:11:26;;;;;;;35.13;17.02;;;;;;;7.87;55.88;101334.22;5007216;28;20049;-78
2021/03/04 04:13:54;;;;;;;24.60;17.67;;;;;;;7.81;55.92;101333.50;5006532;28;20034;-79
2021/03/04 04:16:21;;;;;;;25.63;16.83;;;;;;;7.79;55.90;101325.78;5007301;28;20440;-79
2021/03/04 04:18:50;;;;;;;27.85;18.95;;;;;;;7.88;55.70;101320.38;5008915;28;20492;-79
2021/03/04 04:21:18;;;;;;;24.85;17.13;;;;;;;8.26;54.09;101323.88;5007480;28;20050;-79
2021/03/04 04:23:45;;;;;;;35.80;18.42;;;;;;;7.96;54.99;101322.81;5007624;28;20125;-79
2021/03/04 04:26:11;;;;;;;27.02;20.10;;;;;;;7.91;55.52;101323.78;5007698;28;20046;-79
2021/03/04 04:28:38;;;;;;;26.40;17.02;;;;;;;7.88;55.56;101325.59;5007295;28;20824;-79
2021/03/04 04:31:04;;;;;;;29.10;19.10;;;;;;;8.00;54.91;101318.41;5007188;28;20096;-79
2021/03/04 04:33:31;;;;;;;33.85;21.00;;;;;;;7.91;54.72;101313.41;5007266;28;20046;-79
2021/03/04 04:35:58;;;;;;;29.23;20.27;;;;;;;8.15;53.50;101312.88;5007485;28;20061;-77
2021/03/04 04:38:24;;;;;;;33.38;21.25;;;;;;;7.86;54.57;101316.94;5010044;28;20448;-79
2021/03/04 04:40:52;;;;;;;31.92;21.65;;;;;;;7.74;55.01;101314.63;5009734;28;20049;-78
2021/03/04 04:43:19;;;;;;;29.13;20.25;;;;;;;7.72;55.20;101305.16;5011283;28;20033;-79
2021/03/04 04:45:46;;;;;;;33.88;23.17;;;;;;;7.72;55.43;101307.75;5027375;28;20454;-80
2021/03/04 04:48:13;;;;;;;38.53;24.42;;;;;;;7.61;55.43;101306.22;5013627;28;20132;-80
2021/03/04 04:50:40;;;;;;;37.20;22.13;;;;;;;7.71;55.05;101304.31;5015523;28;20593;-80
2021/03/04 04:53:07;;;;;;;36.75;23.27;;;;;;;7.68;54.93;101309.56;5033096;28;20045;-79
2021/03/04 04:55:33;;;;;;;36.22;23.15;;;;;;;7.54;55.63;101309.00;5023644;28;20563;-77
2021/03/04 04:58:01;;;;;;;35.35;23.52;;;;;;;7.43;56.20;101306.63;5028305;28;20429;-76
2021/03/04 05:00:28;;;;;;;33.00;22.65;;;;;;;7.30;56.37;101310.34;5026788;28;20053;-77
2021/03/04 05:02:55;;;;;;;32.25;21.25;;;;;;;7.46;55.80;101308.31;5030438;28;20037;-77
2021/03/04 05:05:21;;;;;;;32.50;20.25;;;;;;;7.32;56.07;101308.56;5031275;28;20398;-77
2021/03/04 05:07:48;;;;;;;32.28;22.00;;;;;;;7.32;55.96;101314.63;5032792;28;20407;-79
2021/03/04 05:10:14;;;;;;;37.42;22.45;;;;;;;7.52;55.13;101303.84;5024144;28;20049;-80
2021/03/04 05:12:41;;;;;;;35.42;24.88;;;;;;;7.28;56.39;101306.91;5021350;28;20556;-80
2021/03/04 05:15:09;;;;;;;36.05;22.08;;;;;;;7.28;56.24;101306.91;5021358;28;20100;-78
2021/03/04 05:17:36;;;;;;;34.30;21.38;;;;;;;7.19;55.95;101307.97;5012667;28;20085;-79
2021/03/04 05:20:09;;;;;;;32.03;20.92;;;;;;;7.43;55.46;101305.78;5013215;28;20042;-81
2021/03/04 05:22:35;;;;;;;36.10;20.92;;;;;;;7.27;56.05;101305.22;5012510;28;20117;-80
2021/03/04 05:25:02;;;;;;;37.42;24.33;;;;;;;7.14;56.44;101307.19;5012688;28;20429;-79
2021/03/04 05:27:29;;;;;;;40.33;23.17;;;;;;;7.07;56.47;101297.81;5016053;28;20053;-79
2021/03/04 05:29:55;;;;;;;32.58;21.35;;;;;;;7.11;55.95;101303.81;5014214;28;20058;-79
2021/03/04 05:32:22;;;;;;;31.80;21.50;;;;;;;7.07;56.58;101306.44;5012747;28;20068;-78
2021/03/04 05:34:49;;;;;;;32.13;22.48;;;;;;;7.15;56.36;101300.28;5018674;28;20042;-78
2021/03/04 05:37:15;;;;;;;30.58;19.17;;;;;;;7.09;56.32;101306.44;5016552;28;20056;-79
2021/03/04 05:39:42;;;;;;;35.83;22.77;;;;;;;7.22;56.17;101304.44;5016376;28;20471;-77
2021/03/04 05:42:09;;;;;;;36.60;23.85;;;;;;;7.33;55.39;101302.50;5016416;28;20113;-79
2021/03/04 05:44:36;;;;;;;40.03;22.38;;;;;;;7.09;56.09;101299.50;5016652;28;20109;-78
2021/03/04 05:47:04;;;;;;;37.65;23.85;;;;;;;7.28;55.70;101300.00;5016275;28;20070;-78
2021/03/04 05:49:40;;;;;;;38.03;23.10;;;;;;;7.14;55.99;101298.53;5016917;28;20112;-78
2021/03/04 05:52:09;;;;;;;36.28;24.95;;;;;;;7.12;56.76;101297.72;5015720;28;20038;-78
2021/03/04 05:54:39;;;;;;;34.53;22.48;;;;;;;7.13;56.55;101292.50;5015778;28;20052;-78
2021/03/04 05:57:07;;;;;;;32.50;21.05;;;;;;;7.15;55.67;101293.34;5015960;28;20133;-78
2021/03/04 05:59:35;;;;;;;37.45;21.13;;;;;;;7.17;55.63;101296.75;5015958;28;20046;-74
2021/03/04 06:02:05;;;;;;;31.42;19.52;;;;;;;7.25;56.31;101292.28;5015925;28;20396;-74
2021/03/04 06:04:33;;;;;;;37.70;20.73;;;;;;;7.17;56.32;101294.16;5013618;28;20045;-80
2021/03/04 06:07:00;;;;;;;33.63;20.95;;;;;;;7.17;56.83;101291.56;5015378;28;20038;-78
2021/03/04 06:09:30;;;;;;;37.22;20.27;;;;;;;7.21;56.84;101285.44;5016085;28;20125;-79
2021/03/04 06:12:04;;;;;;;31.02;19.83;;;;;;;7.31;56.97;101289.56;5016150;28;20069;-79
2021/03/04 06:14:32;;;;;;;35.35;21.45;;;;;;;7.39;56.40;101289.41;5018660;28;20038;-71
2021/03/04 06:17:18;;;;;;;29.67;18.95;;;;;;;7.57;56.30;101290.78;5013138;28;20072;-71
2021/03/04 06:19:57;;;;;;;34.40;20.55;;;;;;;7.60;55.95;101288.09;5008290;28;20108;-71
2021/03/04 06:22:28;;;;;;;31.80;19.23;;;;;;;7.67;55.75;101283.63;5009417;28;20049;-71
2021/03/04 06:24:56;;;;;;;29.85;17.00;;;;;;;7.82;55.50;101284.16;5008296;28;20104;-72
2021/03/04 06:27:38;;;;;;;26.63;18.35;;;;;;;7.98;54.81;101279.47;5009639;28;20045;-71
2021/03/04 06:30:10;;;;;;;31.55;20.85;;;;;;;8.15;54.16;101276.50;5009382;28;20113;-71
2021/03/04 06:32:39;;;;;;;25.77;18.83;;;;;;;8.37;53.71;101277.72;5009200;28;20108;-76
2021/03/04 06:35:08;;;;;;;26.45;17.30;;;;;;;8.62;53.74;101271.91;5009167;28;20053;-76
2021/03/04 06:37:39;;;;;;;28.83;17.42;;;;;;;8.85;53.36;101266.97;5007458;28;20033;-76
2021/03/04 06:40:16;;;;;;;29.58;16.70;;;;;;;9.09;52.77;101272.41;5008072;28;20550;-73
2021/03/04 06:42:43;;;;;;;26.20;17.67;;;;;;;9.31;51.88;101270.91;5007078;28;20065;-67
2021/03/04 06:45:35;;;;;;;25.67;14.77;;;;;;;9.57;51.00;101269.28;5010250;28;20125;-69
2021/03/04 06:48:24;;;;;;;33.50;18.25;;;;;;;9.88;50.76;101270.06;5008021;28;20435;-70
2021/03/04 06:50:58;;;;;;;29.63;17.02;;;;;;;10.19;49.80;101263.91;5008812;28;20042;-72
2021/03/04 06:53:26;;;;;;;30.05;18.05;;;;;;;10.31;50.05;101255.72;5015368;28;20143;-70
2021/03/04 06:55:56;;;;;;;33.72;17.02;;;;;;;10.65;48.68;101263.28;5014950;28;20126;-70
2021/03/04 06:58:27;;;;;;;35.58;17.95;;;;;;;10.89;48.20;101258.97;5015136;28;20567;-69
2021/03/04 07:01:13;;;;;;;32.00;17.85;;;;;;;11.11;47.56;101260.81;5014014;28;20129;-72
2021/03/04 07:03:50;;;;;;;36.33;19.65;;;;;;;11.30;47.20;101256.63;5013551;28;20132;-73
2021/03/04 07:06:38;;;;;;;34.90;20.20;;;;;;;11.64;46.44;101252.75;5016712;28;20077;-72
2021/03/04 07:09:06;;;;;;;34.95;20.27;;;;;;;12.19;44.89;101250.59;5005267;28;20116;-72
2021/03/04 07:11:36;;;;;;;37.67;21.33;;;;;;;12.16;44.18;101250.72;5009125;28;20164;-72
2021/03/04 07:14:06;;;;;;;38.58;21.98;;;;;;;12.42;44.21;101255.75;5014689;28;20045;-72
2021/03/04 07:16:37;;;;;;;34.45;21.55;;;;;;;13.17;43.25;101259.50;5011424;28;20073;-74
2021/03/04 07:19:09;;;;;;;40.58;22.58;;;;;;;13.60;42.55;101264.50;5010102;28;20042;-74
2021/03/04 07:21:43;;;;;;;39.88;22.33;;;;;;;13.66;41.65;101262.53;5011278;28;20116;-74
2021/03/04 07:24:11;;;;;;;40.67;22.70;;;;;;;14.03;40.60;101259.84;5015649;28;20436;-73
2021/03/04 07:26:38;;;;;;;45.20;22.08;;;;;;;14.48;39.85;101260.31;5025639;28;20519;-73
2021/03/04 07:29:07;;;;;;;34.78;21.70;;;;;;;14.96;38.87;101264.00;5017402;28;20060;-71
2021/03/04 07:31:34;;;;;;;35.30;19.90;;;;;;;14.86;41.31;101269.75;5022390;28;20045;-72
2021/03/04 07:34:01;;;;;;;39.63;22.85;;;;;;;14.82;42.63;101275.22;5014077;28;20129;-73
2021/03/04 07:36:28;;;;;;;32.45;21.25;;;;;;;14.91;42.69;101272.09;5012888;28;20034;-73
2021/03/04 07:39:00;;;;;;;37.00;20.83;;;;;;;15.03;42.98;101270.63;5017548;28;20129;-72
2021/03/04 07:41:39;;;;;;;43.55;24.52;;;;;;;14.90;42.29;101283.53;5014631;28;20060;-69
2021/03/04 07:44:07;;;;;;;36.58;21.42;;;;;;;14.51;43.40;101289.88;5015539;28;20038;-69
2021/03/04 07:46:44;;;;;;;35.35;21.08;;;;;;;14.70;43.01;101283.69;5016695;28;20045;-70
2021/03/04 07:49:10;;;;;;;45.97;19.90;;;;;;;14.88;42.17;101280.16;5016906;28;20041;-69
2021/03/04 07:51:44;;;;;;;34.08;20.63;;;;;;;15.30;42.11;101289.34;5013483;28;20050;-69
2021/03/04 07:54:12;;;;;;;32.38;21.13;;;;;;;15.69;41.22;101281.13;5010875;28;20038;-68
2021/03/04 07:56:39;;;;;;;36.00;19.80;;;;;;;16.00;39.50;101282.06;5013303;28;20112;-69
2021/03/04 07:59:13;;;;;;;33.45;19.58;;;;;;;15.89;38.54;101277.38;5017130;28;20132;-69
2021/03/04 08:01:41;;;;;;;34.78;19.50;;;;;;;15.95;38.75;101282.31;5010241;28;20097;-67
2021/03/04 08:04:22;;;;;;;35.40;21.88;;;;;;;16.10;37.70;101285.84;5004105;28;20468;-69
2021/03/04 08:06:50;;;;;;;34.63;19.92;;;;;;;16.19;36.31;101277.41;5005962;28;20503;-68
2021/03/04 08:09:27;;;;;;;43.22;23.42;;;;;;;16.24;34.41;101276.25;5009526;28;20483;-70
2021/03/04 08:12:13;;;;;;;30.55;20.55;;;;;;;16.11;34.10;101274.41;5008939;28;20122;-70
2021/03/04 08:14:52;;;;;;;38.67;21.75;;;;;;;16.31;34.35;101268.00;5009944;28;20056;-69
2021/03/04 08:17:18;;;;;;;34.90;23.27;;;;;;;16.48;33.79;101266.06;5010905;28;20476;-70
2021/03/04 08:19:48;;;;;;;31.95;19.42;;;;;;;16.68;33.16;101272.81;5013110;28;20048;-68
2021/03/04 08:22:19;;;;;;;33.03;21.13;;;;;;;16.86;33.09;101264.78;5009383;28;20037;-67
2021/03/04 08:24:47;;;;;;;31.95;21.98;;;;;;;17.14;32.88;101264.78;5008980;28;20139;-65
2021/03/04 08:27:14;;;;;;;35.58;21.75;;;;;;;17.13;32.46;101260.47;5011424;28;20044;-65
2021/03/04 08:29:48;;;;;;;37.45;20.70;;;;;;;17.76;31.48;101262.69;5006959;28;20041;-67
2021/03/04 08:32:15;;;;;;;33.42;22.65;;;;;;;18.21;31.03;101251.88;5013559;28;20041;-68
2021/03/04 08:34:43;;;;;;;35.08;22.33;;;;;;;18.30;30.79;101254.75;5005127;28;20779;-67
2021/03/04 08:37:22;;;;;;;39.10;20.65;;;;;;;18.74;29.74;101250.94;5011211;28;20362;-69
2021/03/04 08:40:00;;;;;;;35.67;21.80;;;;;;;18.49;30.14;101245.63;5002595;28;20118;-69
2021/03/04 08:42:26;;;;;;;36.05;22.27;;;;;;;18.93;29.92;101249.69;5004663;28;20535;-69
2021/03/04 08:44:53;;;;;;;34.28;23.63;;;;;;;19.54;29.02;101240.06;5005334;28;20042;-67
2021/03/04 08:47:19;;;;;;;38.53;26.45;;;;;;;19.38;29.34;101245.63;5004377;28;20500;-68
2021/03/04 08:49:54;;;;;;;42.10;28.42;;;;;;;19.04;29.58;101247.16;5007039;28;20045;-67
2021/03/04 08:52:29;;;;;;;40.17;27.95;;;;;;;19.75;28.48;101243.00;5011812;28;20300;-67
2021/03/04 08:55:03;;;;;;;42.72;29.48;;;;;;;19.93;28.75;101240.84;5004050;28;20460;-67
2021/03/04 08:57:30;;;;;;;;;;;;;;;19.71;28.61;101238.88;5005272;28;20053;-66
2021/03/04 09:00:07;;;;;;;40.92;25.38;;;;;;;20.41;28.08;101236.34;5008570;28;20411;-66
2021/03/04 09:02:34;;;;;;;51.63;31.13;;;;;;;20.00;28.95;101228.84;5010489;28;20132;-67
2021/03/04 09:05:01;;;;;;;45.47;30.90;;;;;;;19.61;29.00;101226.34;5011412;28;20058;-67
2021/03/04 09:07:30;;;;;;;53.35;32.55;;;;;;;19.86;28.93;101229.84;5009426;28;20057;-67
2021/03/04 09:10:04;;;;;;;48.53;32.15;;;;;;;19.85;28.68;101218.41;5008269;28;20110;-68
2021/03/04 09:12:39;;;;;;;51.20;34.42;;;;;;;19.97;28.86;101214.00;5009289;28;20572;-66
2021/03/04 09:15:11;;;;;;;46.83;31.95;;;;;;;19.75;29.22;101217.41;5009450;28;20388;-68
2021/03/04 09:17:42;;;;;;;53.13;33.35;;;;;;;19.91;29.08;101211.81;5013755;28;20034;-68
2021/03/04 09:20:10;;;;;;;48.65;33.17;;;;;;;19.69;29.57;101215.19;5008735;28;20045;-66
2021/03/04 09:22:40;;;;;;;49.70;33.65;;;;;;;19.63;29.80;101205.06;5008149;28;20553;-68
2021/03/04 09:25:12;;;;;;;57.75;36.72;;;;;;;19.22;30.51;101205.38;5010475;28;20044;-66
2021/03/04 09:27:39;;;;;;;50.53;36.90;;;;;;;18.95;31.02;101210.78;5006330;28;20056;-65
2021/03/04 09:30:07;;;;;;;56.63;36.75;;;;;;;18.08;31.57;101201.72;5004647;28;20403;-68
2021/03/04 09:32:35;;;;;;;55.95;38.72;;;;;;;16.57;34.20;101208.59;5010698;28;20451;-65
2021/03/04 09:35:13;;;;;;;54.17;39.35;;;;;;;16.62;34.92;101209.13;5008232;28;20041;-68
2021/03/04 09:37:39;;;;;;;54.10;39.60;;;;;;;16.27;35.93;101203.34;5010929;28;20377;-68
2021/03/04 09:40:21;;;;;;;59.42;39.15;;;;;;;16.57;35.46;101198.06;5010041;28;20077;-68
2021/03/04 09:42:48;;;;;;;60.15;41.08;;;;;;;16.12;34.66;101195.41;5009695;28;20038;-68
2021/03/04 09:45:14;;;;;;;60.47;38.85;;;;;;;15.95;35.99;101192.91;5008176;28;20548;-69
2021/03/04 09:47:49;;;;;;;59.88;39.17;;;;;;;15.86;36.85;101188.16;5010428;28;20493;-67
2021/03/04 09:50:17;;;;;;;56.50;38.00;;;;;;;15.94;37.11;101185.94;5009722;28;20096;-66
2021/03/04 09:52:44;;;;;;;56.88;41.13;;;;;;;15.78;36.90;101180.72;5011031;28;20049;-70
2021/03/04 09:55:20;;;;;;;61.88;39.05;;;;;;;15.93;36.74;101176.38;5008614;28;20121;-68
2021/03/04 09:57:47;;;;;;;65.07;37.92;;;;;;;15.74;36.95;101180.97;5014704;28;20092;-65
2021/03/04 10:00:17;;;;;;;50.17;35.88;;;;;;;15.85;37.41;101175.94;5011873;28;20501;-66
2021/03/04 10:02:48;;;;;;;55.63;39.22;;;;;;;15.75;38.48;101177.41;5010246;28;20530;-66
2021/03/04 10:05:23;;;;;;;57.17;37.67;;;;;;;15.73;37.99;101174.88;5010518;28;20038;-66
2021/03/04 10:07:51;;;;;;;59.88;40.17;;;;;;;15.76;38.43;101176.47;5011114;28;20141;-67
2021/03/04 10:10:20;;;;;;;55.45;41.17;;;;;;;15.43;38.65;101177.41;5009110;28;20044;-67
2021/03/04 10:12:55;;;;;;;62.38;43.13;;;;;;;15.46;38.33;101183.34;5011388;28;20125;-67
2021/03/04 10:15:40;;;;;;;59.75;42.60;;;;;;;15.33;38.61;101178.84;5015204;28;20061;-68
2021/03/04 10:18:10;;;;;;;62.72;44.80;;;;;;;15.28;39.45;101181.72;5014874;28;20108;-67
2021/03/04 10:20:38;;;;;;;61.78;40.80;;;;;;;15.38;39.08;101180.28;5014439;28;20041;-67
2021/03/04 10:23:05;;;;;;;60.78;41.70;;;;;;;15.38;39.19;101168.91;5014367;28;20077;-67
2021/03/04 10:25:31;;;;;;;60.05;39.17;;;;;;;15.29;39.14;101172.91;5014642;28;20042;-68
2021/03/04 10:27:59;;;;;;;57.80;40.72;;;;;;;15.35;39.35;101174.34;5014757;28;20038;-67
2021/03/04 10:30:36;;;;;;;67.20;45.55;;;;;;;15.16;38.90;101166.63;5013591;28;20041;-69
2021/03/04 10:33:06;;;;;;;67.60;46.72;;;;;;;15.10;38.95;101162.56;5028952;28;20512;-70
2021/03/04 10:35:35;;;;;;;61.47;42.42;;;;;;;15.27;39.10;101166.03;5014453;28;20038;-68
2021/03/04 10:38:02;;;;;;;60.88;38.30;;;;;;;15.37;38.23;101164.59;5010623;28;20096;-67
2021/03/04 10:40:29;;;;;;;60.20;40.15;;;;;;;15.33;38.33;101160.44;5012193;28;20048;-67
2021/03/04 10:42:55;;;;;;;57.25;40.28;;;;;;;15.26;39.35;101156.47;5013754;28;20041;-67
2021/03/04 10:45:25;;;;;;;60.20;40.08;;;;;;;15.19;39.58;101163.84;5013117;28;20120;-66
2021/03/04 10:47:51;;;;;;;62.30;42.47;;;;;;;15.22;39.70;101149.69;5011999;28;20037;-67
2021/03/04 10:50:21;;;;;;;59.45;44.13;;;;;;;15.24;39.76;101147.84;5012967;28;20041;-62
2021/03/04 10:52:48;;;;;;;63.58;39.53;;;;;;;15.09;39.72;101147.75;5011811;28;20046;-65
2021/03/04 10:55:34;;;;;;;58.30;37.75;;;;;;;15.29;39.44;101141.41;5012925;28;20038;-62
2021/03/04 10:58:00;;;;;;;63.42;43.47;;;;;;;15.04;39.85;101146.28;5013093;28;20050;-65
2021/03/04 11:00:27;;;;;;;60.80;38.58;;;;;;;15.16;38.93;101135.09;5010771;28;20040;-64
2021/03/04 11:02:53;;;;;;;56.10;38.35;;;;;;;15.21;38.63;101130.44;5011070;28;20050;-71
2021/03/04 11:05:20;;;;;;;58.17;39.55;;;;;;;15.05;38.74;101130.44;5012016;28;20038;-73
2021/03/04 11:07:47;;;;;;;56.00;41.10;;;;;;;15.13;38.94;101122.16;5012364;28;20128;-76
2021/03/04 11:10:14;;;;;;;57.33;40.75;;;;;;;15.30;39.44;101123.84;5012433;28;20466;-76
2021/03/04 11:12:47;;;;;;;63.75;38.67;;;;;;;15.17;38.01;101111.38;5012492;28;20444;-65
2021/03/04 11:15:15;;;;;;;52.78;40.20;;;;;;;15.27;38.52;101116.13;5012840;28;20072;-65
2021/03/04 11:17:42;;;;;;;57.53;41.38;;;;;;;15.24;39.33;101111.06;5011492;28;20061;-66
2021/03/04 11:20:10;;;;;;;55.50;39.17;;;;;;;15.08;39.32;101103.19;5010669;28;20112;-65
2021/03/04 11:22:38;;;;;;;59.88;40.88;;;;;;;15.17;39.59;101102.66;5011445;28;20065;-67
2021/03/04 11:25:05;;;;;;;49.60;35.05;;;;;;;15.25;37.71;101103.09;5010248;28;20066;-67